Time;durP1;ratioP1;P1;durP2;ratioP2;P2;SDS_P1;SDS_P2;PMS_P1;PMS_P2;Temp;Humidity;BMP_temperature;BMP_pressure;BME280_temperature;BME280_humidity;BME280_pressure;Samples;Min_cycle;Max_cycle;Signal;HPM_P1;HPM_P2
2022/07/19 00:01:26;;;;;;;2.22;1.73;;;20.80;68.20;;;;;;5073564;28;20261;-88
2022/07/19 00:03:57;;;;;;;1.92;1.70;;;20.80;68.20;;;;;;5073832;28;20304;-88
2022/07/19 00:06:29;;;;;;;1.60;1.50;;;20.70;68.00;;;;;;5074240;28;20200;-88
2022/07/19 00:09:08;;;;;;;2.33;2.13;;;20.70;68.20;;;;;;5074069;28;20213;-88
2022/07/19 00:11:47;;;;;;;1.98;1.83;;;20.60;68.40;;;;;;5073519;28;20205;-88
2022/07/19 00:14:18;;;;;;;3.65;1.90;;;20.60;69.00;;;;;;5073695;28;20232;-88
2022/07/19 00:16:52;;;;;;;1.55;1.45;;;20.60;69.10;;;;;;5073810;28;20208;-88
2022/07/19 00:19:21;;;;;;;2.63;1.92;;;20.50;69.10;;;;;;5074079;28;20213;-88
2022/07/19 00:21:53;;;;;;;1.67;1.58;;;20.50;69.10;;;;;;5073516;28;20209;-88
2022/07/19 00:24:25;;;;;;;2.97;1.75;;;20.50;69.10;;;;;;5073723;28;20278;-88
2022/07/19 00:27:01;;;;;;;1.73;1.55;;;20.50;68.60;;;;;;5073905;28;20239;-88
2022/07/19 00:29:51;;;;;;;13.65;1.90;;;20.50;67.90;;;;;;5073904;28;20209;-88
2022/07/19 00:32:22;;;;;;;1.67;1.58;;;20.50;67.90;;;;;;5073040;28;20205;-88
2022/07/19 00:34:51;;;;;;;2.05;1.85;;;20.50;67.60;;;;;;5073858;28;20259;-88
2022/07/19 00:37:28;;;;;;;1.75;1.65;;;20.50;67.00;;;;;;5073526;28;20204;-88
2022/07/19 00:40:09;;;;;;;1.77;1.67;;;20.50;67.60;;;;;;5073300;28;20206;-88
2022/07/19 00:42:39;;;;;;;1.50;1.40;;;20.50;67.90;;;;;;5073304;28;20201;-88
2022/07/19 00:45:08;;;;;;;1.58;1.48;;;20.40;67.80;;;;;;5073517;28;20217;-88
2022/07/19 00:47:37;;;;;;;1.73;1.40;;;20.40;68.10;;;;;;5073433;28;20205;-88
2022/07/19 00:50:05;;;;;;;4.20;1.42;;;20.40;68.50;;;;;;5073167;28;20220;-88
2022/07/19 00:52:46;;;;;;;1.67;1.58;;;20.40;68.20;;;;;;5073014;28;20201;-88
2022/07/19 00:55:27;;;;;;;1.20;1.10;;;20.40;67.80;;;;;;5073603;28;20221;-88
2022/07/19 00:58:19;;;;;;;4.88;1.45;;;20.40;67.60;;;;;;5072843;28;20201;-88
2022/07/19 01:00:58;;;;;;;1.35;1.25;;;20.40;67.80;;;;;;5072895;28;20266;-88
2022/07/19 01:03:39;;;;;;;1.23;1.13;;;20.40;68.90;;;;;;5072877;28;20204;-88
2022/07/19 01:06:25;;;;;;;2.10;1.42;;;20.30;69.30;;;;;;5072997;28;20212;-88
2022/07/19 01:09:26;;;;;;;1.15;1.15;;;20.20;69.60;;;;;;5073118;28;20213;-88
2022/07/19 01:12:02;;;;;;;1.48;1.33;;;20.10;69.50;;;;;;5072748;28;20219;-88
2022/07/19 01:14:40;;;;;;;1.15;1.15;;;20.10;69.70;;;;;;5072041;28;20227;-88
2022/07/19 01:17:34;;;;;;;1.95;1.30;;;20.10;69.60;;;;;;5073176;28;20209;-88
2022/07/19 01:20:18;;;;;;;3.80;1.70;;;20.00;70.10;;;;;;5072519;28;20219;-88
2022/07/19 01:23:13;;;;;;;1.55;1.02;;;20.00;70.00;;;;;;5073012;28;20197;-88
2022/07/19 01:26:02;;;;;;;1.33;1.20;;;20.00;70.50;;;;;;5073002;28;20258;-88
2022/07/19 01:28:51;;;;;;;2.03;1.80;;;19.90;70.80;;;;;;5072822;28;20306;-88
2022/07/19 01:31:39;;;;;;;2.35;1.40;;;19.90;70.90;;;;;;5072840;28;20201;-88
2022/07/19 01:34:29;;;;;;;1.88;1.40;;;19.90;71.10;;;;;;5072182;28;20225;-88
2022/07/19 01:37:17;;;;;;;1.73;1.55;;;19.90;71.10;;;;;;5072775;28;20228;-88
2022/07/19 01:40:11;;;;;;;1.75;1.38;;;19.80;71.10;;;;;;5072414;28;20205;-88
2022/07/19 01:42:46;;;;;;;2.60;1.73;;;19.80;71.50;;;;;;5072947;28;20205;-88
2022/07/19 01:45:29;;;;;;;1.38;1.27;;;19.80;71.80;;;;;;5072732;28;20228;-88
2022/07/19 01:48:08;;;;;;;3.40;1.20;;;19.80;72.00;;;;;;5072532;28;20201;-88
2022/07/19 01:50:47;;;;;;;1.30;1.20;;;19.70;72.40;;;;;;5072215;28;20211;-88
2022/07/19 01:53:27;;;;;;;1.20;1.20;;;19.70;72.70;;;;;;5072343;28;20228;-88
2022/07/19 01:56:17;;;;;;;1.40;1.30;;;19.70;73.10;;;;;;5072846;28;20201;-87
2022/07/19 01:59:08;;;;;;;1.40;1.30;;;19.60;73.80;;;;;;5072457;28;20209;-88
2022/07/19 02:01:54;;;;;;;0.88;0.88;;;19.50;74.10;;;;;;5072244;28;20291;-87
2022/07/19 02:04:26;;;;;;;1.10;1.10;;;19.50;74.40;;;;;;5071554;28;20220;-88
2022/07/19 02:06:57;;;;;;;1.60;1.50;;;19.40;74.60;;;;;;5072766;28;20251;-88
2022/07/19 02:09:27;;;;;;;1.48;1.05;;;19.40;74.70;;;;;;5072366;28;20234;-88
2022/07/19 02:12:22;;;;;;;1.27;1.17;;;19.40;74.90;;;;;;5072313;28;20193;-88
2022/07/19 02:14:57;;;;;;;1.23;1.13;;;19.40;74.90;;;;;;5072076;28;20227;-88
2022/07/19 02:17:37;;;;;;;1.58;1.48;;;19.40;74.60;;;;;;5072331;28;20204;-87
2022/07/19 02:20:10;;;;;;;1.60;1.50;;;19.30;74.70;;;;;;5072274;28;20208;-88
2022/07/19 02:22:52;;;;;;;1.17;1.08;;;;;;;;;;5072296;28;20204;-88
2022/07/19 02:25:36;;;;;;;1.25;1.20;;;19.30;74.20;;;;;;5072309;28;20223;-88
2022/07/19 02:28:16;;;;;;;1.60;1.50;;;19.30;75.40;;;;;;5075957;28;20209;-88
2022/07/19 02:30:55;;;;;;;2.35;1.75;;;19.30;75.80;;;;;;5075692;28;20204;-87
2022/07/19 02:33:46;;;;;;;3.30;1.63;;;19.20;76.50;;;;;;5075336;28;20209;-88
2022/07/19 02:36:27;;;;;;;1.63;1.52;;;19.20;75.90;;;;;;5075764;28;20209;-88
2022/07/19 02:39:01;;;;;;;1.98;1.55;;;19.20;76.30;;;;;;5075853;28;20211;-88
2022/07/19 02:41:38;;;;;;;2.80;1.63;;;19.20;76.40;;;;;;5075407;28;20258;-87
2022/07/19 02:44:18;;;;;;;1.42;1.33;;;19.10;76.20;;;;;;5075280;28;20227;-88
2022/07/19 02:46:57;;;;;;;1.45;1.35;;;19.10;76.40;;;;;;5075718;28;20209;-88
2022/07/19 02:49:43;;;;;;;1.45;1.35;;;19.10;76.70;;;;;;5075782;28;20209;-88
2022/07/19 02:52:21;;;;;;;3.33;1.77;;;19.00;76.00;;;;;;5075307;28;20295;-88
2022/07/19 02:55:10;;;;;;;1.63;1.52;;;19.00;76.30;;;;;;5075503;28;20225;-88
2022/07/19 02:57:50;;;;;;;1.80;1.50;;;19.00;76.20;;;;;;5075153;28;20215;-88
2022/07/19 03:00:44;;;;;;;3.70;1.83;;;19.00;76.70;;;;;;5075506;28;20209;-88
2022/07/19 03:06:09;;;;;;;2.20;1.50;;;19.00;76.90;;;;;;5075767;28;20201;-88
2022/07/19 03:08:47;;;;;;;2.35;1.58;;;19.00;77.20;;;;;;5075267;28;20269;-87
2022/07/19 03:11:28;;;;;;;1.77;1.67;;;19.00;77.20;;;;;;5074946;28;20204;-88
2022/07/19 03:14:05;;;;;;;2.00;1.80;;;19.00;77.20;;;;;;5075025;28;20308;-88
2022/07/19 03:16:48;;;;;;;2.50;2.00;;;19.00;77.10;;;;;;5075383;28;20208;-88
2022/07/19 03:19:29;;;;;;;1.77;1.67;;;18.90;76.80;;;;;;5074739;28;20200;-88
2022/07/19 03:22:03;;;;;;;1.98;1.70;;;18.90;77.10;;;;;;5074337;28;20207;-88
2022/07/19 03:24:40;;;;;;;3.03;2.08;;;18.90;77.70;;;;;;5074872;28;20213;-88
2022/07/19 03:27:31;;;;;;;2.67;2.00;;;18.90;78.10;;;;;;5075265;28;20209;-87
2022/07/19 03:30:12;;;;;;;1.45;1.35;;;19.00;78.50;;;;;;5075194;28;20209;-87
2022/07/19 03:33:06;;;;;;;2.38;1.77;;;18.90;78.80;;;;;;5074413;28;20259;-88
2022/07/19 03:35:43;;;;;;;1.92;1.75;;;18.90;78.90;;;;;;5074250;28;20249;-88
2022/07/19 03:38:26;;;;;;;1.88;1.70;;;18.90;79.10;;;;;;5074223;28;20201;-88
2022/07/19 03:43:47;;;;;;;3.40;2.22;;;18.90;80.10;;;;;;5074043;28;20228;-87
2022/07/19 03:46:28;;;;;;;3.40;1.95;;;18.90;80.40;;;;;;5074447;28;20200;-88
2022/07/19 03:49:02;;;;;;;1.70;1.60;;;18.90;80.60;;;;;;5074480;28;20208;-88
2022/07/19 03:51:51;;;;;;;3.00;1.63;;;18.90;80.50;;;;;;5074504;28;20201;-88
2022/07/19 03:54:31;;;;;;;8.55;1.77;;;18.90;80.70;;;;;;5074715;28;20236;-87
2022/07/19 03:57:22;;;;;;;2.33;1.88;;;19.00;80.50;;;;;;5074271;28;20270;-88
2022/07/19 04:00:01;;;;;;;2.88;2.05;;;18.90;80.60;;;;;;5074267;28;20215;-88
2022/07/19 04:02:32;;;;;;;2.25;1.80;;;18.90;80.80;;;;;;5074517;28;20227;-88
2022/07/19 04:05:11;;;;;;;2.10;1.90;;;18.90;81.20;;;;;;5073920;28;20217;-88
2022/07/19 04:07:50;;;;;;;1.60;1.50;;;19.00;81.50;;;;;;5073973;28;20219;-88
2022/07/19 04:10:18;;;;;;;1.63;1.52;;;19.00;81.30;;;;;;5073484;28;20208;-88
2022/07/19 04:13:00;;;;;;;3.72;2.00;;;19.00;81.50;;;;;;5074121;28;20204;-88
2022/07/19 04:15:42;;;;;;;2.33;2.13;;;19.00;81.70;;;;;;5072314;28;20248;-88
2022/07/19 04:18:14;;;;;;;2.00;1.90;;;19.10;81.70;;;;;;5073902;28;20224;-88
2022/07/19 04:20:44;;;;;;;2.15;2.00;;;19.10;81.80;;;;;;5073855;28;20209;-88
2022/07/19 04:23:12;;;;;;;1.95;1.85;;;19.10;81.70;;;;;;5074010;28;20196;-88
2022/07/19 04:25:40;;;;;;;2.10;1.90;;;19.10;81.70;;;;;;5073766;28;20304;-88
2022/07/19 04:28:15;;;;;;;2.20;1.90;;;19.10;81.90;;;;;;5073505;28;20255;-88
2022/07/19 04:31:08;;;;;;;2.53;2.30;;;19.20;82.50;;;;;;5073633;28;20215;-88
2022/07/19 04:33:59;;;;;;;2.60;2.28;;;19.20;82.40;;;;;;5073313;28;20324;-87
2022/07/19 04:36:37;;;;;;;2.47;2.20;;;19.30;82.30;;;;;;5073946;28;20244;-88
2022/07/19 04:39:06;;;;;;;3.92;1.90;;;19.30;82.30;;;;;;5073631;28;20197;-88
2022/07/19 04:41:34;;;;;;;2.38;2.03;;;19.30;82.60;;;;;;5073419;28;20294;-88
2022/07/19 04:44:03;;;;;;;2.95;2.30;;;19.40;82.70;;;;;;5073309;28;20221;-88
2022/07/19 04:46:31;;;;;;;2.38;2.17;;;19.40;82.90;;;;;;5073424;28;20250;-88
2022/07/19 04:49:00;;;;;;;2.35;2.10;;;19.40;82.40;;;;;;5072446;28;20201;-88
2022/07/19 04:51:37;;;;;;;7.82;2.45;;;19.50;82.50;;;;;;5073196;28;20212;-88
2022/07/19 04:54:13;;;;;;;2.08;1.75;;;19.50;82.40;;;;;;5073209;28;20220;-88
2022/07/19 04:56:53;;;;;;;3.92;2.17;;;19.60;82.50;;;;;;5072974;28;20231;-88
2022/07/19 04:59:22;;;;;;;2.17;1.98;;;19.60;82.40;;;;;;5073167;28;20292;-88
2022/07/19 05:01:50;;;;;;;4.35;2.20;;;19.60;82.50;;;;;;5072980;28;20204;-88
2022/07/19 05:04:20;;;;;;;2.72;2.28;;;19.60;82.40;;;;;;5073399;28;20232;-88
2022/07/19 05:06:56;;;;;;;2.72;1.80;;;19.60;82.60;;;;;;5072901;28;20201;-87
2022/07/19 05:09:30;;;;;;;2.78;2.10;;;19.70;82.40;;;;;;5072853;28;20237;-88
2022/07/19 05:11:58;;;;;;;3.00;1.83;;;19.70;82.30;;;;;;5072517;28;20196;-88
2022/07/19 05:14:26;;;;;;;2.08;1.95;;;19.70;82.40;;;;;;5073115;28;20245;-87
2022/07/19 05:16:55;;;;;;;2.92;2.45;;;19.80;82.30;;;;;;5072842;28;20275;-88
2022/07/19 05:19:23;;;;;;;3.63;2.47;;;19.90;81.70;;;;;;5072668;28;20235;-87
2022/07/19 05:21:51;;;;;;;1.90;1.80;;;19.90;81.50;;;;;;5072837;28;20209;-88
2022/07/19 05:24:20;;;;;;;3.65;2.30;;;20.00;81.30;;;;;;5072662;28;20229;-87
2022/07/19 05:26:49;;;;;;;1.92;1.83;;;20.10;80.70;;;;;;5072564;28;20229;-88
2022/07/19 05:29:22;;;;;;;3.88;2.15;;;20.20;79.30;;;;;;5072868;28;20201;-87
2022/07/19 05:31:53;;;;;;;1.60;1.50;;;20.30;78.10;;;;;;5072750;28;20211;-88
2022/07/19 05:34:22;;;;;;;2.15;1.90;;;20.50;77.20;;;;;;5072280;28;20243;-87
2022/07/19 05:36:50;;;;;;;1.98;1.77;;;20.60;76.90;;;;;;5072339;28;20221;-88
2022/07/19 05:39:19;;;;;;;1.50;1.40;;;20.80;76.30;;;;;;5072554;28;20231;-87
2022/07/19 05:41:47;;;;;;;1.65;1.42;;;20.90;75.80;;;;;;5072424;28;20205;-87
2022/07/19 05:44:17;;;;;;;1.90;1.80;;;20.90;75.60;;;;;;5072709;28;20257;-87
2022/07/19 05:46:45;;;;;;;1.60;1.48;;;21.00;75.70;;;;;;5072552;28;20204;-87
2022/07/19 05:49:13;;;;;;;2.05;1.90;;;21.10;75.70;;;;;;5072464;28;20209;-88
2022/07/19 05:51:43;;;;;;;3.50;2.00;;;21.10;75.60;;;;;;5072298;28;20204;-87
2022/07/19 05:54:11;;;;;;;2.38;1.85;;;21.20;75.60;;;;;;5072677;28;20256;-88
2022/07/19 05:56:40;;;;;;;2.58;2.00;;;21.30;75.30;;;;;;5072502;28;20220;-88
2022/07/19 05:59:11;;;;;;;1.60;1.50;;;21.40;75.40;;;;;;5072337;28;20209;-88
2022/07/19 06:01:43;;;;;;;1.95;1.58;;;21.50;75.30;;;;;;5076215;28;20266;-87
2022/07/19 06:04:16;;;;;;;1.65;1.55;;;21.50;74.90;;;;;;5076466;28;20286;-87
2022/07/19 06:09:33;;;;;;;5.30;2.03;;;21.70;74.60;;;;;;5076145;28;20215;-88
2022/07/19 06:12:01;;;;;;;3.65;2.25;;;21.80;74.80;;;;;;5076200;28;20229;-88
2022/07/19 06:14:30;;;;;;;8.50;2.40;;;21.80;74.80;;;;;;5076492;28;20251;-87
2022/07/19 06:16:59;;;;;;;6.40;2.13;;;21.90;75.30;;;;;;5075889;28;20221;-88
2022/07/19 06:19:28;;;;;;;1.75;1.65;;;22.00;74.40;;;;;;5075956;28;20193;-88
2022/07/19 06:22:03;;;;;;;1.50;1.40;;;22.20;74.20;;;;;;5075771;28;20212;-88
2022/07/19 06:24:38;;;;;;;4.40;1.90;;;22.30;73.90;;;;;;5076268;28;20275;-88
2022/07/19 06:27:13;;;;;;;1.70;1.60;;;22.40;73.50;;;;;;5076035;28;20262;-87
2022/07/19 06:29:50;;;;;;;3.33;1.80;;;22.50;73.30;;;;;;5075936;28;20296;-88
2022/07/19 06:32:27;;;;;;;1.83;1.73;;;22.60;72.70;;;;;;5075305;28;20452;-87
2022/07/19 06:34:59;;;;;;;3.40;1.63;;;22.70;72.50;;;;;;5075879;28;20225;-88
2022/07/19 06:37:30;;;;;;;6.78;2.03;;;22.90;72.40;;;;;;5075697;28;20308;-87
2022/07/19 06:39:58;;;;;;;2.30;2.00;;;22.90;71.70;;;;;;5076060;28;20208;-88
2022/07/19 06:42:26;;;;;;;2.55;2.08;;;23.00;71.50;;;;;;5075563;28;20212;-88
2022/07/19 06:44:55;;;;;;;1.75;1.65;;;23.20;71.30;;;;;;5075122;28;20221;-88
2022/07/19 06:47:28;;;;;;;2.65;1.88;;;23.30;71.10;;;;;;5075650;28;20193;-88
2022/07/19 06:49:56;;;;;;;2.60;1.77;;;23.40;70.50;;;;;;5075481;28;20204;-87
2022/07/19 06:52:50;;;;;;;1.92;1.80;;;23.60;70.50;;;;;;5075464;28;20205;-88
2022/07/19 06:55:21;;;;;;;2.75;1.90;;;23.60;70.00;;;;;;5075463;28;20221;-88
2022/07/19 06:57:54;;;;;;;1.75;1.63;;;23.70;70.50;;;;;;5075007;28;20224;-88
2022/07/19 07:00:29;;;;;;;1.77;1.55;;;23.80;69.80;;;;;;5075346;28;20239;-87
2022/07/19 07:03:08;;;;;;;1.77;1.63;;;23.90;69.50;;;;;;5075388;28;20200;-88
2022/07/19 07:05:41;;;;;;;2.20;2.00;;;24.20;69.60;;;;;;5075136;28;20327;-88
2022/07/19 07:08:25;;;;;;;1.70;1.60;;;24.40;69.00;;;;;;5075694;28;20208;-88
2022/07/19 07:10:55;;;;;;;4.30;1.88;;;24.50;68.50;;;;;;5075154;28;20197;-88
2022/07/19 07:13:34;;;;;;;2.80;2.03;;;24.70;68.00;;;;;;5074567;28;20213;-87
2022/07/19 07:16:10;;;;;;;1.90;1.80;;;24.90;67.60;;;;;;5075141;28;20278;-88
2022/07/19 07:18:49;;;;;;;1.90;1.80;;;25.40;67.10;;;;;;5075407;28;20205;-87
2022/07/19 07:21:23;;;;;;;1.90;1.75;;;25.60;66.30;;;;;;5074794;28;20201;-88
2022/07/19 07:24:00;;;;;;;1.85;1.65;;;25.80;65.50;;;;;;5074650;28;20224;-88
2022/07/19 07:26:37;;;;;;;2.70;1.92;;;26.00;64.90;;;;;;5075067;28;20265;-88
2022/07/19 07:29:17;;;;;;;2.08;1.73;;;26.40;64.40;;;;;;5075269;28;20273;-88
2022/07/19 07:31:54;;;;;;;3.55;1.50;;;27.40;62.80;;;;;;5074412;28;20200;-88
2022/07/19 07:34:35;;;;;;;3.65;2.00;;;28.70;59.80;;;;;;5074597;28;20228;-88
2022/07/19 07:37:11;;;;;;;2.13;1.92;;;29.30;57.90;;;;;;5075012;28;20252;-88
2022/07/19 07:39:42;;;;;;;3.58;2.72;;;30.50;56.60;;;;;;5074893;28;20204;-88
2022/07/19 07:42:10;;;;;;;2.05;1.85;;;31.60;54.40;;;;;;5074636;28;20231;-88
2022/07/19 07:44:40;;;;;;;2.80;2.15;;;32.50;53.40;;;;;;5074520;28;20304;-88
2022/07/19 07:47:09;;;;;;;2.38;1.95;;;34.40;51.00;;;;;;5074560;28;20204;-88
2022/07/19 07:49:39;;;;;;;2.20;2.00;;;36.40;49.10;;;;;;5074287;28;20289;-88
2022/07/19 07:52:08;;;;;;;2.70;1.88;;;37.90;46.10;;;;;;5074271;28;20231;-88
2022/07/19 07:54:36;;;;;;;1.73;1.63;;;38.90;44.20;;;;;;5074311;28;20228;-88
2022/07/19 07:57:31;;;;;;;2.42;1.80;;;40.30;42.50;;;;;;5074216;28;20311;-88
2022/07/19 08:00:08;;;;;;;7.00;2.47;;;41.50;40.30;;;;;;5074395;28;20204;-88
2022/07/19 08:02:45;;;;;;;2.58;1.98;;;41.40;39.10;;;;;;5074047;28;20201;-88
2022/07/19 08:05:22;;;;;;;1.70;1.60;;;42.10;37.90;;;;;;5074102;28;20307;-86
2022/07/19 08:07:53;;;;;;;1.58;1.50;;;42.20;38.10;;;;;;5074119;28;20212;-85
2022/07/19 08:10:23;;;;;;;3.83;1.98;;;42.70;37.00;;;;;;5073821;28;20209;-86
2022/07/19 08:12:55;;;;;;;6.50;1.83;;;43.50;36.40;;;;;;5074339;28;20212;-86
2022/07/19 08:15:24;;;;;;;2.15;1.63;;;44.30;35.90;;;;;;5074294;28;20251;-86
2022/07/19 08:17:52;;;;;;;2.55;2.03;;;43.70;35.20;;;;;;5073439;28;20228;-86
2022/07/19 08:20:22;;;;;;;2.05;1.85;;;43.80;35.90;;;;;;5073355;28;20212;-86
2022/07/19 08:22:51;;;;;;;1.92;1.52;;;44.40;34.60;;;;;;5074173;28;20201;-86
2022/07/19 08:25:21;;;;;;;2.55;1.70;;;44.60;34.80;;;;;;5073800;28;20224;-86
2022/07/19 08:27:50;;;;;;;2.13;1.92;;;45.10;33.30;;;;;;5073839;28;20200;-86
2022/07/19 08:30:18;;;;;;;1.80;1.70;;;45.70;33.00;;;;;;5073657;28;20205;-86
2022/07/19 08:32:47;;;;;;;2.38;2.17;;;46.50;33.10;;;;;;5073619;28;20228;-86
2022/07/19 08:35:18;;;;;;;3.10;1.90;;;46.60;33.50;;;;;;5073578;28;20315;-86
2022/07/19 08:37:49;;;;;;;2.58;2.22;;;46.70;32.70;;;;;;5073489;28;20228;-86
2022/07/19 08:40:21;;;;;;;4.20;2.63;;;46.40;32.50;;;;;;5073289;28;20204;-86
2022/07/19 08:42:54;;;;;;;2.22;1.95;;;45.70;32.70;;;;;;5073829;28;20200;-86
2022/07/19 08:45:24;;;;;;;4.93;2.72;;;46.10;33.00;;;;;;5073163;28;20229;-86
2022/07/19 08:47:54;;;;;;;2.20;2.00;;;46.00;31.70;;;;;;5073308;28;20201;-86
2022/07/19 08:50:31;;;;;;;2.13;1.92;;;46.00;31.90;;;;;;5073097;28;20214;-87
2022/07/19 08:53:03;;;;;;;1.90;1.65;;;46.10;31.70;;;;;;5073257;28;20224;-86
2022/07/19 08:55:32;;;;;;;1.83;1.60;;;46.60;31.60;;;;;;5073460;28;20243;-86
2022/07/19 08:58:03;;;;;;;5.50;2.65;;;46.80;30.50;;;;;;5073128;28;20220;-87
2022/07/19 09:00:34;;;;;;;3.35;2.13;;;47.10;30.60;;;;;;5073228;28;20222;-87
2022/07/19 09:03:04;;;;;;;1.95;1.85;;;47.40;30.50;;;;;;5073330;28;20212;-86
2022/07/19 09:05:36;;;;;;;2.67;1.63;;;47.10;30.00;;;;;;5072915;28;20278;-86
2022/07/19 09:08:09;;;;;;;2.67;2.10;;;46.70;30.00;;;;;;5073417;28;20204;-87
2022/07/19 09:11:13;;;;;;;1.90;1.80;;;46.30;29.50;;;;;;5072478;28;20228;-87
2022/07/19 09:13:34;;;;;;;1.70;1.60;;;45.30;30.60;;;;;;5072910;28;20204;-86
2022/07/19 09:16:03;;;;;;;9.38;1.80;;;45.70;31.30;;;;;;5073024;28;20205;-87
2022/07/19 09:18:34;;;;;;;1.40;1.30;;;46.20;29.70;;;;;;5072725;28;20224;-87
2022/07/19 09:21:05;;;;;;;2.83;1.60;;;46.20;29.50;;;;;;5072613;28;20211;-87
2022/07/19 09:23:38;;;;;;;1.70;1.60;;;46.30;29.80;;;;;;5073070;28;20218;-87
2022/07/19 09:26:07;;;;;;;1.50;1.40;;;46.50;29.60;;;;;;5072936;28;20204;-87
2022/07/19 09:28:37;;;;;;;1.50;1.40;;;46.30;29.50;;;;;;5073016;28;20192;-87
2022/07/19 09:31:10;;;;;;;1.58;1.48;;;46.00;29.30;;;;;;5073009;28;20211;-87
2022/07/19 09:33:46;;;;;;;1.75;1.63;;;45.80;29.60;;;;;;5072877;28;20284;-87
2022/07/19 09:36:16;;;;;;;1.80;1.70;;;45.10;29.50;;;;;;5072272;28;20208;-87
2022/07/19 09:38:52;;;;;;;1.67;1.58;;;44.60;29.50;;;;;;5072482;28;20243;-87
2022/07/19 09:41:26;;;;;;;3.85;1.70;;;44.50;30.10;;;;;;5072460;28;20253;-87
2022/07/19 09:43:58;;;;;;;1.55;1.45;;;44.30;30.40;;;;;;5072831;28;20228;-87
2022/07/19 09:46:34;;;;;;;1.55;1.45;;;44.30;29.60;;;;;;5072733;28;20222;-87
2022/07/19 09:49:14;;;;;;;2.75;2.00;;;43.40;30.00;;;;;;5072742;28;20233;-87
2022/07/19 09:51:46;;;;;;;4.72;1.60;;;43.80;30.10;;;;;;5072566;28;20201;-87
2022/07/19 09:54:20;;;;;;;2.70;1.50;;;43.80;30.00;;;;;;5072390;28;20267;-87
2022/07/19 09:56:53;;;;;;;2.35;1.77;;;44.00;30.20;;;;;;5072779;28;20228;-87
2022/07/19 09:59:24;;;;;;;2.97;1.55;;;44.10;30.30;;;;;;5072265;28;20270;-87
2022/07/19 10:01:54;;;;;;;1.88;1.55;;;44.30;30.00;;;;;;5072624;28;20235;-87
2022/07/19 10:04:25;;;;;;;2.13;1.88;;;44.60;29.70;;;;;;5072562;28;20259;-85
2022/07/19 10:06:55;;;;;;;1.95;1.58;;;44.60;29.10;;;;;;5072391;28;20204;-87
2022/07/19 10:09:27;;;;;;;4.32;1.92;;;43.80;29.30;;;;;;5072235;28;20208;-87
2022/07/19 10:11:57;;;;;;;1.67;1.58;;;44.10;30.00;;;;;;5072123;28;20211;-87
2022/07/19 10:14:26;;;;;;;1.80;1.70;;;44.20;30.30;;;;;;5072635;28;20217;-87
2022/07/19 10:17:24;;;;;;;1.95;1.77;;;44.50;29.90;;;;;;5072304;28;20208;-87
2022/07/19 10:20:03;;;;;;;2.22;1.80;;;44.80;29.90;;;;;;5072260;28;20203;-87
2022/07/19 10:22:45;;;;;;;1.65;1.40;;;45.00;29.20;;;;;;5072538;28;20269;-87
2022/07/19 10:25:27;;;;;;;2.72;1.50;;;45.20;29.30;;;;;;5072385;28;20229;-87
2022/07/19 10:28:03;;;;;;;4.25;1.70;;;44.80;28.60;;;;;;5072139;28;20287;-87
2022/07/19 10:30:47;;;;;;;2.60;1.65;;;45.00;29.10;;;;;;5071902;28;20212;-87
2022/07/19 10:33:37;;;;;;;1.85;1.70;;;45.00;28.70;;;;;;5052468;28;20233;-87
2022/07/19 10:36:41;;;;;;;4.35;2.08;;;44.70;28.50;;;;;;5052515;28;20224;-87
2022/07/19 10:39:26;;;;;;;11.63;1.80;;;43.90;29.40;;;;;;5051969;28;20224;-87
2022/07/19 10:42:24;;;;;;;2.60;2.15;;;43.60;29.50;;;;;;5051919;28;20216;-87
2022/07/19 10:45:34;;;;;;;2.95;1.98;;;43.10;29.50;;;;;;5051867;28;20286;-87
2022/07/19 10:48:40;;;;;;;1.60;1.38;;;42.10;29.90;;;;;;5055168;28;20197;-87
2022/07/19 10:51:33;;;;;;;1.48;1.33;;;42.00;30.80;;;;;;5055307;28;20289;-87
2022/07/19 10:54:18;;;;;;;1.67;1.58;;;42.50;30.80;;;;;;5055884;28;20221;-87
2022/07/19 10:57:01;;;;;;;2.33;1.60;;;42.80;31.00;;;;;;5056091;28;20213;-87
2022/07/19 10:59:39;;;;;;;2.55;1.92;;;43.20;30.20;;;;;;5055247;28;20225;-87
2022/07/19 11:02:23;;;;;;;1.92;1.75;;;43.50;30.00;;;;;;5054943;28;20205;-87
2022/07/19 11:05:23;;;;;;;1.75;1.65;;;43.60;29.90;;;;;;5054866;28;20303;-87
2022/07/19 11:07:56;;;;;;;1.70;1.60;;;43.00;29.20;;;;;;5055279;28;20197;-87
2022/07/19 11:10:44;;;;;;;2.00;1.90;;;43.40;30.00;;;;;;5055021;28;20219;-87
2022/07/19 11:13:24;;;;;;;1.50;1.40;;;43.50;30.00;;;;;;5055760;28;20208;-87
2022/07/19 11:16:03;;;;;;;1.98;1.80;;;43.60;30.00;;;;;;5055569;28;20201;-87
2022/07/19 11:18:47;;;;;;;1.60;1.50;;;43.20;29.60;;;;;;5055341;28;20221;-87
2022/07/19 11:21:24;;;;;;;1.92;1.80;;;42.70;29.80;;;;;;5054915;28;20208;-87
2022/07/19 11:24:17;;;;;;;1.50;1.40;;;42.30;29.70;;;;;;5055109;28;20232;-87
2022/07/19 11:26:50;;;;;;;3.17;1.92;;;41.60;30.60;;;;;;5055171;28;20202;-87
2022/07/19 11:29:18;;;;;;;1.60;1.50;;;41.80;30.40;;;;;;5054916;28;20204;-87
2022/07/19 11:31:56;;;;;;;1.70;1.60;;;42.20;30.90;;;;;;5055284;28;20205;-87
2022/07/19 11:34:31;;;;;;;7.78;2.00;;;42.60;30.80;;;;;;5054634;28;20225;-87
2022/07/19 11:37:08;;;;;;;1.70;1.60;;;42.60;30.00;;;;;;5054995;28;20292;-87
2022/07/19 11:39:50;;;;;;;1.60;1.50;;;42.50;30.10;;;;;;5054518;28;20251;-87
2022/07/19 11:42:36;;;;;;;1.92;1.73;;;42.00;30.30;;;;;;5054610;28;20223;-87
2022/07/19 11:45:42;;;;;;;1.67;1.58;;;42.00;30.70;;;;;;5054747;28;20283;-87
2022/07/19 11:48:35;;;;;;;2.03;1.75;;;42.20;30.30;;;;;;5054553;28;20212;-88
2022/07/19 11:51:13;;;;;;;2.67;2.10;;;42.30;30.00;;;;;;5054604;28;20209;-87
2022/07/19 11:53:57;;;;;;;2.20;2.00;;;42.40;29.90;;;;;;5054434;28;20258;-87
2022/07/19 11:56:31;;;;;;;2.70;1.80;;;42.30;30.10;;;;;;5054385;28;20261;-87
2022/07/19 11:59:10;;;;;;;1.67;1.55;;;42.20;30.40;;;;;;5053864;28;20320;-87
2022/07/19 12:01:58;;;;;;;1.45;1.45;;;42.10;30.80;;;;;;5052795;28;20202;-87
2022/07/19 12:04:49;;;;;;;1.75;1.55;;;42.20;30.00;;;;;;5053704;28;20221;-87
2022/07/19 12:07:23;;;;;;;3.28;2.28;;;42.40;29.40;;;;;;5054198;28;20271;-87
2022/07/19 12:09:56;;;;;;;2.20;2.00;;;42.60;29.60;;;;;;5053635;28;20303;-87
2022/07/19 12:12:27;;;;;;;1.80;1.70;;;42.70;29.60;;;;;;5053698;28;20215;-87
2022/07/19 12:15:14;;;;;;;2.25;1.83;;;42.60;29.80;;;;;;5053946;28;20313;-87
2022/07/19 12:17:59;;;;;;;1.85;1.75;;;42.20;29.50;;;;;;5053709;28;20211;-87
2022/07/19 12:20:41;;;;;;;1.98;1.80;;;41.90;30.20;;;;;;5053757;28;20282;-87
2022/07/19 12:29:25;;;;;;;2.13;1.80;;;41.40;30.00;;;;;;5013959;28;20198;-87
2022/07/19 12:32:13;;;;;;;1.70;1.60;;;41.80;30.10;;;;;;5013800;28;20207;-87
2022/07/19 12:35:05;;;;;;;1.70;1.60;;;42.00;30.00;;;;;;5014290;28;20257;-87
2022/07/19 12:37:47;;;;;;;1.50;1.40;;;41.90;29.90;;;;;;5013817;28;20207;-87
2022/07/19 12:40:29;;;;;;;1.88;1.50;;;41.70;29.60;;;;;;5013343;28;20342;-87
2022/07/19 12:43:17;;;;;;;1.92;1.83;;;41.70;29.80;;;;;;5014029;28;20211;-87
2022/07/19 12:45:56;;;;;;;2.72;2.08;;;41.60;29.90;;;;;;5013688;28;20308;-87
2022/07/19 12:51:27;;;;;;;2.55;1.90;;;41.50;30.10;;;;;;5013647;28;20207;-87
2022/07/19 12:54:02;;;;;;;1.77;1.60;;;41.20;29.90;;;;;;5013032;28;20309;-87
2022/07/19 12:56:35;;;;;;;1.75;1.65;;;40.80;30.50;;;;;;5013345;28;20204;-90
2022/07/19 13:02:13;;;;;;;3.40;1.88;;;40.40;30.80;;;;;;5013305;28;20207;-91
2022/07/19 13:04:46;;;;;;;2.10;1.67;;;40.20;31.10;;;;;;5013360;28;20297;-90
2022/07/19 13:07:16;;;;;;;3.55;2.25;;;40.10;31.50;;;;;;5013656;28;20197;-90
2022/07/19 13:09:48;;;;;;;2.08;1.80;;;40.10;31.20;;;;;;5012520;28;20198;-90
2022/07/19 13:12:19;;;;;;;2.35;1.88;;;40.20;30.60;;;;;;5012895;28;20214;-90
2022/07/19 13:14:56;;;;;;;1.83;1.73;;;40.00;30.50;;;;;;5012876;28;20232;-90
2022/07/19 13:17:35;;;;;;;2.83;1.77;;;39.70;31.00;;;;;;5012985;28;20214;-87
2022/07/19 13:20:11;;;;;;;1.58;1.48;;;39.50;30.90;;;;;;5012918;28;20222;-87
2022/07/19 13:22:48;;;;;;;2.05;1.88;;;38.90;31.00;;;;;;5013061;28;20214;-87
2022/07/19 13:25:23;;;;;;;2.75;2.00;;;38.40;31.10;;;;;;5013017;28;20268;-87
2022/07/19 13:28:11;;;;;;;4.05;2.13;;;38.40;32.30;;;;;;5013051;28;20221;-87
2022/07/19 13:30:51;;;;;;;2.05;1.95;;;38.50;32.40;;;;;;5012412;28;20214;-87
2022/07/19 13:33:29;;;;;;;2.40;2.20;;;38.60;31.80;;;;;;5012570;28;20290;-87
2022/07/19 13:36:04;;;;;;;2.22;2.03;;;38.80;31.90;;;;;;5012809;28;20210;-87
2022/07/19 13:38:38;;;;;;;3.08;2.08;;;38.90;31.90;;;;;;5012907;28;20209;-87
2022/07/19 13:41:12;;;;;;;2.38;2.03;;;38.90;31.80;;;;;;5012935;28;20277;-87
2022/07/19 13:43:43;;;;;;;2.35;2.15;;;39.00;32.20;;;;;;5013128;28;20202;-87
2022/07/19 13:46:18;;;;;;;1.67;1.58;;;38.30;31.50;;;;;;5012742;28;20324;-87
2022/07/19 13:48:53;;;;;;;2.08;1.88;;;38.30;32.40;;;;;;5012668;28;20206;-87
2022/07/19 13:51:25;;;;;;;3.60;2.40;;;38.00;31.50;;;;;;5012488;28;20206;-87
2022/07/19 13:53:57;;;;;;;2.40;2.20;;;38.00;32.40;;;;;;5012603;28;20253;-87
2022/07/19 13:56:37;;;;;;;2.15;1.80;;;38.00;32.50;;;;;;5012643;28;20210;-87
2022/07/19 13:59:17;;;;;;;2.78;1.90;;;38.00;32.80;;;;;;5012095;28;20206;-87